Stacja Pogody
Warszawa Praga-Północ

Szerokość 52°15'43"N Długość 21°01'22"E Wysokość 110m n.p.m.


344 dzień roku. Do końca pozostalo 22 dni.
Wschód Słońca 07:33 Górowanie Słońca 11:28 Zachód Słońca 15:23 strzelec
Data juliańska 2457732.183 Odległość Słońca 147310045 km Średn. kątowa Słońca 0,325°
Wschód Księżyca 13:07 Zachód Księżyca 01:00 Wiek Księżyca 10 dni Moon
Widoczność Księżyca 74,19% Odległość Księżyca 366629 km Średn. kątowa Księżyca 0,326°
Dzień krótszy od najdłuższego o: 08:57 Długość dnia 07:50 Imieniny Wiesława, Leokadii, Joanny



  Aktualizacja: 09-12-2016 16:22:40
TEMPERATURA
Aktualnie: 7.0°C ↑
Temperatura odczuwalna:3.9°C
Punkt rosy6.1°C
WIATR
Średnia prędkość: 11.2km/h ↑
Prędkość w podmuchach:18.4km/h
Przepływ w ciągu doby:270.0km
Kierunek wiatru:180°
CIŚNIENIE
Względne:1016.7hPa
Bezwzględne:1003.5hPa
Trend ciśnienia:powolny spadek
WILGOTNOŚĆ
Wilgotność względna: 95% ↓
Podstawa chmur410m
DESZCZ
W ostatniej godzinie: 0.3mm
Dzisiaj:0.3mm
W tym miesiącu:11.1mm
METAR
EPWA 091500Z 28012KT 250V310 6000 -DZ OVC005 06/05 Q1016 TEMPO 5000 BR
Ostrzeżenia burzowe





a  a a